メインページ
METAR-TAF:

METAR-TAF

空港 :

ドバイ国際空港

ドバイ, アラブ首長国連邦

緯度: 25-15-10N, 経度: 055-21-52E, 海抜: 8m

現時点の気象観測

当レポートは24分前の01:00(UTC)に作成
の風 5kt、南東から南/南西の間で変化する
気温 15°C
湿度 63%
気圧 1018 hPa
視程10km以上
高度4500ftの雲はほとんどない

METAR: OMDB 210100Z 17005KT 140V200 9999 FEW045 15/08 Q1018 NOSIG

時間: 05:24 (01:24 UTC)

予報

当レポートは2時間28分前の22:56(UTC)に作成
予報は21日の 00時(UTC)から 22日の 06時(UTC)まで有効
西/北西の風 10kt
視程10km以上
高度4000ftの雲はほとんどない
21日の 00時(UTC)から 21日の 02時(UTC)まで徐々に
南/南東の風 5kt
21日の 09時(UTC)から 21日の 11時(UTC)まで徐々に
西/北西の風 10kt
21日の 15時(UTC)から 21日の 17時(UTC)まで徐々に
の風 5kt

TAF: OMDB 202256Z 2100/2206 29010KT 9999 FEW040 BECMG 2100/2102 16005KT BECMG 2109/2111 29010KT BECMG 2115/2117 18005KT

4,000以上の空港の気象観測と天気予報(METAR報とTAF報)

利用可能な観測所は地図上に黄色い丸と赤い丸で示す。

丸の上にカーソルを重ねると観測所名を参照できる。

次にクリックすると気象観測と天気予報を参照できる。

マップの切り替え:黒色「×」印の緑ボタンをクリックして拡大、「-」印の緑ボタンをクリックして縮小、緑色の三角印をクリックして隣りの地図に切り替え


METAR-TAF: